createdAt,value
2022-10-22T00:00:02.196Z,26.55
2022-10-22T00:02:31.489Z,26.27
2022-10-22T00:04:58.203Z,25.48
2022-10-22T00:07:25.357Z,26.90
2022-10-22T00:09:52.041Z,24.65
2022-10-22T00:12:19.213Z,26.30
2022-10-22T00:14:46.950Z,25.25
2022-10-22T00:17:14.028Z,23.30
2022-10-22T00:19:40.946Z,25.88
2022-10-22T00:22:08.656Z,26.88
2022-10-22T00:24:36.317Z,24.15
2022-10-22T00:27:04.494Z,28.02
2022-10-22T00:29:31.393Z,27.00
2022-10-22T00:31:58.141Z,30.45
2022-10-22T00:34:25.197Z,27.98
2022-10-22T00:36:52.075Z,29.02
2022-10-22T00:39:21.045Z,25.65
2022-10-22T00:41:50.233Z,25.10
2022-10-22T00:44:54.364Z,24.92
2022-10-22T00:47:23.909Z,26.35
2022-10-22T00:49:52.163Z,27.02
2022-10-22T00:52:19.591Z,31.50
2022-10-22T00:54:46.218Z,28.45
2022-10-22T00:57:13.049Z,30.10
2022-10-22T00:59:39.771Z,28.65
2022-10-22T01:02:06.390Z,28.25
2022-10-22T01:04:33.081Z,31.20
2022-10-22T01:06:59.740Z,30.15
2022-10-22T01:09:46.104Z,30.70
2022-10-22T01:12:39.751Z,28.92
2022-10-22T01:15:29.675Z,27.98
2022-10-22T01:18:06.572Z,28.17
2022-10-22T01:20:54.908Z,26.33
2022-10-22T01:23:35.821Z,26.90
2022-10-22T01:26:17.632Z,25.55
2022-10-22T01:29:11.448Z,26.95
2022-10-22T01:31:55.788Z,27.60
2022-10-22T01:34:24.166Z,27.17
2022-10-22T01:36:53.068Z,27.38
2022-10-22T01:39:21.101Z,26.88
2022-10-22T01:41:47.728Z,24.02
2022-10-22T01:44:24.702Z,25.00
2022-10-22T01:46:58.776Z,26.55
2022-10-22T01:49:34.341Z,27.00
2022-10-22T01:53:07.972Z,23.23
2022-10-22T01:55:49.872Z,24.60
2022-10-22T01:58:20.067Z,23.17
2022-10-22T02:00:56.472Z,24.27
2022-10-22T02:03:34.321Z,26.40
2022-10-22T02:06:05.969Z,27.40
2022-10-22T02:08:35.598Z,26.35
2022-10-22T02:11:04.177Z,23.27
2022-10-22T02:13:39.665Z,24.73
2022-10-22T02:16:09.521Z,24.10
2022-10-22T02:18:40.490Z,26.63
2022-10-22T02:23:35.921Z,23.33
2022-10-22T02:26:14.749Z,23.85
2022-10-22T02:29:03.718Z,23.20
2022-10-22T02:31:34.329Z,22.60
2022-10-22T02:34:08.847Z,23.90
2022-10-22T02:36:37.613Z,23.23
2022-10-22T02:39:06.768Z,24.35
2022-10-22T02:41:33.776Z,23.33
2022-10-22T02:44:02.266Z,22.38
2022-10-22T02:46:29.097Z,20.75
2022-10-22T02:48:55.757Z,23.20
2022-10-22T02:51:22.379Z,23.45
2022-10-22T02:53:49.050Z,21.58
2022-10-22T02:56:15.766Z,23.05
2022-10-22T02:58:42.382Z,21.33
2022-10-22T03:01:11.251Z,24.25
2022-10-22T03:03:40.422Z,23.25
2022-10-22T03:06:07.440Z,24.15
2022-10-22T03:08:34.165Z,25.17
2022-10-22T03:11:00.799Z,25.40
2022-10-22T03:13:27.426Z,24.85
2022-10-22T03:15:54.076Z,22.48
2022-10-22T03:18:20.684Z,21.55
2022-10-22T03:20:47.319Z,21.05
2022-10-22T03:23:17.276Z,21.50
2022-10-22T03:25:46.430Z,20.23
2022-10-22T03:28:15.577Z,20.92
2022-10-22T03:30:42.330Z,22.27
2022-10-22T03:33:08.995Z,22.33
2022-10-22T03:35:44.701Z,24.92
2022-10-22T03:38:12.855Z,26.58
2022-10-22T03:40:40.778Z,23.67
2022-10-22T03:43:07.514Z,24.25
2022-10-22T03:45:34.278Z,24.73
2022-10-22T03:48:00.906Z,25.83
2022-10-22T03:50:27.573Z,23.35
2022-10-22T03:52:54.458Z,22.27
2022-10-22T03:55:21.229Z,24.38
2022-10-22T03:57:47.854Z,23.52
2022-10-22T04:00:14.710Z,24.65
2022-10-22T04:02:41.457Z,25.60
2022-10-22T04:05:08.742Z,24.13
2022-10-22T04:07:35.428Z,24.33
2022-10-22T04:10:02.113Z,24.30
2022-10-22T04:12:28.783Z,26.20
2022-10-22T04:14:55.434Z,25.10
2022-10-22T04:17:22.154Z,25.67
2022-10-22T04:19:48.779Z,25.05
2022-10-22T04:22:15.442Z,24.75
2022-10-22T04:24:42.078Z,24.73
2022-10-22T04:27:08.738Z,25.38
2022-10-22T04:29:35.409Z,24.42
2022-10-22T04:32:02.034Z,24.50
2022-10-22T04:34:29.396Z,25.40
2022-10-22T04:36:56.109Z,26.23
2022-10-22T04:39:22.797Z,25.08
2022-10-22T04:41:49.561Z,25.02
2022-10-22T04:44:18.183Z,24.75
2022-10-22T04:46:45.609Z,24.55
2022-10-22T04:49:12.369Z,23.88
2022-10-22T04:51:39.113Z,24.95
2022-10-22T04:54:06.143Z,25.27
2022-10-22T04:56:33.150Z,25.92
2022-10-22T04:59:02.215Z,26.42
2022-10-22T05:01:42.604Z,26.50
2022-10-22T05:04:13.440Z,23.50
2022-10-22T05:06:40.143Z,24.15
2022-10-22T05:09:10.918Z,24.60
2022-10-22T05:11:41.719Z,25.65
2022-10-22T05:14:10.136Z,23.77
2022-10-22T05:16:38.344Z,21.40
2022-10-22T05:19:06.041Z,23.00
2022-10-22T05:21:33.172Z,24.45
2022-10-22T05:24:00.133Z,26.55
2022-10-22T05:26:28.344Z,23.80
2022-10-22T05:28:55.581Z,21.25
2022-10-22T05:31:22.283Z,21.98
2022-10-22T05:33:49.060Z,21.33
2022-10-22T05:36:19.278Z,21.63
2022-10-22T05:38:46.600Z,21.23
2022-10-22T05:41:16.701Z,21.98
2022-10-22T05:43:43.919Z,20.45
2022-10-22T05:46:14.989Z,21.58
2022-10-22T05:48:44.734Z,21.27
2022-10-22T05:51:13.124Z,25.25
2022-10-22T05:53:42.146Z,23.63
2022-10-22T05:56:12.645Z,23.60
2022-10-22T05:58:39.687Z,23.20
2022-10-22T06:01:23.303Z,24.20
2022-10-22T06:03:54.040Z,26.48
2022-10-22T06:06:28.067Z,26.67
2022-10-22T06:08:56.065Z,22.52
2022-10-22T06:11:23.831Z,24.05
2022-10-22T06:13:52.109Z,22.65
2022-10-22T06:16:18.696Z,22.58
2022-10-22T06:18:45.475Z,20.05
2022-10-22T06:21:14.299Z,21.17
2022-10-22T06:23:42.137Z,21.85
2022-10-22T06:26:11.020Z,19.98
2022-10-22T06:28:38.756Z,21.30
2022-10-22T06:31:06.051Z,23.58
2022-10-22T06:33:34.301Z,22.02
2022-10-22T06:36:14.564Z,22.40
2022-10-22T06:38:41.832Z,26.02
2022-10-22T06:41:11.263Z,27.35
2022-10-22T06:43:38.060Z,26.13
2022-10-22T06:46:09.874Z,27.58
2022-10-22T06:48:38.041Z,26.10
2022-10-22T06:51:07.073Z,25.63
2022-10-22T06:53:34.013Z,26.35
2022-10-22T06:56:15.015Z,25.17
2022-10-22T06:58:42.377Z,25.67
2022-10-22T07:01:12.605Z,27.80
2022-10-22T07:03:40.762Z,28.25
2022-10-22T07:06:12.787Z,27.80
2022-10-22T07:08:40.587Z,25.33
2022-10-22T07:11:18.518Z,26.52
2022-10-22T07:13:45.838Z,23.02
2022-10-22T07:16:12.767Z,25.67
2022-10-22T07:18:40.480Z,24.13
2022-10-22T07:21:08.001Z,22.52
2022-10-22T07:23:35.062Z,21.85
2022-10-22T07:26:06.700Z,22.55
2022-10-22T07:28:34.524Z,21.90
2022-10-22T07:31:01.120Z,21.65
2022-10-22T07:33:27.940Z,20.55
2022-10-22T07:35:59.939Z,20.05
2022-10-22T07:38:27.491Z,19.80
2022-10-22T07:40:55.004Z,18.67
2022-10-22T07:43:22.089Z,17.98
2022-10-22T07:45:48.692Z,19.13
2022-10-22T07:48:15.595Z,18.73
2022-10-22T07:50:42.264Z,19.67
2022-10-22T07:53:09.084Z,19.67
2022-10-22T07:55:36.204Z,19.67
2022-10-22T07:58:02.824Z,18.52
2022-10-22T08:00:29.511Z,19.45
2022-10-22T08:02:56.043Z,20.38
2022-10-22T08:05:22.676Z,18.70
2022-10-22T08:07:49.295Z,19.33
2022-10-22T08:10:15.929Z,19.17
2022-10-22T08:12:42.927Z,17.67
2022-10-22T08:15:10.125Z,18.80
2022-10-22T08:17:37.061Z,18.33
2022-10-22T08:20:04.467Z,18.23
2022-10-22T08:22:31.312Z,18.33
2022-10-22T08:24:58.004Z,18.88
2022-10-22T08:27:24.599Z,18.30
2022-10-22T08:29:51.248Z,18.67
2022-10-22T08:32:17.908Z,19.60
2022-10-22T08:34:44.535Z,18.45
2022-10-22T08:37:14.350Z,19.17
2022-10-22T08:39:41.424Z,20.17
2022-10-22T08:42:45.180Z,19.25
2022-10-22T08:45:23.253Z,18.23
2022-10-22T08:48:11.759Z,18.23
2022-10-22T08:50:42.376Z,18.40
2022-10-22T08:53:15.547Z,17.63
2022-10-22T08:55:42.330Z,17.75
2022-10-22T08:58:36.053Z,16.83
2022-10-22T09:01:19.816Z,18.25
2022-10-22T09:04:25.458Z,16.38
2022-10-22T09:06:58.173Z,16.63
2022-10-22T09:09:31.317Z,17.27
2022-10-22T09:12:00.484Z,16.30
2022-10-22T09:14:27.385Z,16.08
2022-10-22T09:17:19.489Z,15.98
2022-10-22T09:20:40.178Z,15.13
2022-10-22T09:23:40.784Z,14.73
2022-10-22T09:26:15.802Z,14.88
2022-10-22T09:28:43.539Z,15.40
2022-10-22T09:31:12.798Z,15.18
2022-10-22T09:33:41.676Z,13.77
2022-10-22T09:36:08.781Z,14.23
2022-10-22T09:38:50.741Z,13.18
2022-10-22T09:41:20.001Z,14.05
2022-10-22T09:43:48.151Z,12.63
2022-10-22T09:46:21.328Z,13.40
2022-10-22T09:48:50.228Z,13.13
2022-10-22T09:51:23.264Z,12.60
2022-10-22T09:54:02.271Z,12.85
2022-10-22T09:56:40.959Z,12.68
2022-10-22T09:59:17.944Z,12.68
2022-10-22T10:01:45.101Z,12.48
2022-10-22T10:04:15.254Z,12.85
2022-10-22T10:06:44.620Z,11.93
2022-10-22T10:09:19.899Z,11.95
2022-10-22T10:11:56.286Z,11.50
2022-10-22T10:14:44.649Z,10.98
2022-10-22T10:17:27.015Z,10.07
2022-10-22T10:20:18.489Z,10.90
2022-10-22T10:23:02.679Z,11.10
2022-10-22T10:25:37.519Z,10.18
2022-10-22T10:28:21.588Z,9.93
2022-10-22T10:31:03.211Z,10.52
2022-10-22T10:33:48.525Z,10.02
2022-10-22T10:36:25.263Z,8.93
2022-10-22T10:39:00.109Z,10.63
2022-10-22T10:41:29.397Z,10.48
2022-10-22T10:44:25.922Z,10.68
2022-10-22T10:47:23.748Z,10.05
2022-10-22T10:49:54.523Z,9.27
2022-10-22T10:52:53.420Z,9.68
2022-10-22T10:55:32.449Z,8.48
2022-10-22T10:58:25.697Z,8.05
2022-10-22T11:01:09.390Z,9.15
2022-10-22T11:04:07.256Z,8.98
2022-10-22T11:06:37.032Z,8.30
2022-10-22T11:09:13.638Z,7.57
2022-10-22T11:11:48.781Z,10.05
2022-10-22T11:14:45.779Z,8.82
2022-10-22T11:17:17.675Z,8.07
2022-10-22T11:22:33.867Z,6.65
2022-10-22T11:25:12.500Z,8.52
2022-10-22T11:28:03.186Z,7.43
2022-10-22T11:30:37.428Z,6.75
2022-10-22T11:35:35.811Z,7.35
2022-10-22T11:38:06.317Z,6.95
2022-10-22T11:40:36.937Z,7.22
2022-10-22T11:43:07.983Z,6.05
2022-10-22T11:45:40.337Z,6.75
2022-10-22T11:48:19.327Z,7.50
2022-10-22T11:50:55.095Z,6.32
2022-10-22T11:53:39.257Z,6.55
2022-10-22T11:56:24.632Z,7.82
2022-10-22T11:58:53.987Z,5.72
2022-10-22T12:01:25.128Z,5.38
2022-10-22T12:04:18.930Z,4.88
2022-10-22T12:06:53.786Z,4.60
2022-10-22T12:09:23.695Z,4.82
2022-10-22T12:11:51.226Z,4.82
2022-10-22T12:14:29.710Z,4.05
2022-10-22T12:17:12.154Z,3.58
2022-10-22T12:19:46.400Z,3.90
2022-10-22T12:22:13.131Z,3.97
2022-10-22T12:24:44.764Z,3.45
2022-10-22T12:27:38.573Z,3.17
2022-10-22T12:30:24.013Z,3.08
2022-10-22T12:32:56.245Z,3.47
2022-10-22T12:35:25.956Z,3.45
2022-10-22T12:37:57.844Z,3.38
2022-10-22T12:40:35.365Z,3.40
2022-10-22T12:45:50.562Z,2.85
2022-10-22T12:48:22.187Z,2.75
2022-10-22T12:50:52.948Z,2.88
2022-10-22T12:53:44.465Z,2.25
2022-10-22T12:56:16.269Z,2.25
2022-10-22T13:01:14.413Z,2.47
2022-10-22T13:03:50.307Z,2.95
2022-10-22T13:06:19.917Z,3.10
2022-10-22T13:09:01.691Z,2.55
2022-10-22T13:11:40.836Z,2.45
2022-10-22T13:14:38.344Z,2.92
2022-10-22T13:17:17.475Z,2.60
2022-10-22T13:19:50.229Z,2.65
2022-10-22T13:22:31.015Z,2.60
2022-10-22T13:25:20.714Z,2.53
2022-10-22T13:27:51.093Z,2.60
2022-10-22T13:30:22.804Z,2.20
2022-10-22T13:35:26.009Z,2.10
2022-10-22T13:37:58.802Z,2.83
2022-10-22T13:40:25.780Z,2.85
2022-10-22T13:42:52.450Z,2.58
2022-10-22T13:45:19.338Z,2.53
2022-10-22T13:47:53.637Z,2.60
2022-10-22T13:50:21.507Z,2.45
2022-10-22T13:52:52.823Z,2.58
2022-10-22T13:55:25.713Z,2.05
2022-10-22T13:58:19.243Z,2.38
2022-10-22T14:00:49.081Z,2.38
2022-10-22T14:03:20.072Z,2.63
2022-10-22T14:05:47.746Z,1.83
2022-10-22T14:08:16.558Z,1.98
2022-10-22T14:10:43.538Z,2.17
2022-10-22T14:13:15.321Z,2.10
2022-10-22T14:18:15.648Z,2.22
2022-10-22T14:20:42.975Z,2.10
2022-10-22T14:23:20.071Z,2.20
2022-10-22T14:25:47.472Z,2.47
2022-10-22T14:28:14.403Z,1.80
2022-10-22T14:30:41.377Z,2.55
2022-10-22T14:33:29.019Z,1.83
2022-10-22T14:36:01.899Z,2.58
2022-10-22T14:38:29.440Z,2.60
2022-10-22T14:40:56.786Z,2.40
2022-10-22T14:43:27.704Z,2.45
2022-10-22T14:45:54.640Z,2.10
2022-10-22T14:48:21.456Z,2.95
2022-10-22T14:50:48.867Z,2.70
2022-10-22T14:53:16.908Z,2.20
2022-10-22T14:55:45.123Z,2.05
2022-10-22T14:58:12.530Z,2.35
2022-10-22T15:00:42.471Z,2.80
2022-10-22T15:03:10.262Z,1.92
2022-10-22T15:05:44.544Z,2.38
2022-10-22T15:08:13.587Z,2.58
2022-10-22T15:10:40.521Z,2.15
2022-10-22T15:13:07.401Z,2.67
2022-10-22T15:15:39.279Z,2.65
2022-10-22T15:18:06.970Z,2.88
2022-10-22T15:20:33.678Z,2.45
2022-10-22T15:23:00.650Z,3.17
2022-10-22T15:25:27.477Z,3.17
2022-10-22T15:27:57.590Z,2.47
2022-10-22T15:30:28.597Z,2.78
2022-10-22T15:32:55.238Z,3.47
2022-10-22T15:35:21.854Z,2.88
2022-10-22T15:37:51.702Z,3.00
2022-10-22T15:40:18.397Z,3.15
2022-10-22T15:42:46.644Z,3.58
2022-10-22T15:45:13.489Z,3.22
2022-10-22T15:47:40.725Z,2.80
2022-10-22T15:50:08.208Z,2.97
2022-10-22T15:52:35.058Z,3.63
2022-10-22T15:55:04.264Z,3.63
2022-10-22T15:57:31.057Z,3.70
2022-10-22T15:59:57.696Z,3.78
2022-10-22T16:02:24.513Z,4.68
2022-10-22T16:04:51.164Z,5.38
2022-10-22T16:07:19.857Z,6.05
2022-10-22T16:09:49.247Z,4.88
2022-10-22T16:12:17.281Z,4.82
2022-10-22T16:14:44.059Z,4.72
2022-10-22T16:17:10.760Z,4.88
2022-10-22T16:19:37.350Z,5.20
2022-10-22T16:22:03.998Z,4.60
2022-10-22T16:24:31.233Z,4.65
2022-10-22T16:26:57.880Z,4.82
2022-10-22T16:29:24.698Z,4.80
2022-10-22T16:31:51.269Z,4.55
2022-10-22T16:34:17.962Z,5.18
2022-10-22T16:36:44.612Z,4.35
2022-10-22T16:39:11.354Z,4.45
2022-10-22T16:41:37.982Z,4.80
2022-10-22T16:44:07.887Z,4.90
2022-10-22T16:46:38.656Z,4.35
2022-10-22T16:49:06.156Z,4.43
2022-10-22T16:51:33.154Z,4.57
2022-10-22T16:53:59.749Z,4.47
2022-10-22T16:56:26.921Z,4.82
2022-10-22T16:58:56.547Z,4.85
2022-10-22T17:01:33.246Z,5.55
2022-10-22T17:04:02.429Z,5.40
2022-10-22T17:06:29.117Z,4.70
2022-10-22T17:08:55.912Z,5.85
2022-10-22T17:11:24.527Z,6.00
2022-10-22T17:13:53.564Z,5.40
2022-10-22T17:16:22.705Z,5.90
2022-10-22T17:18:49.996Z,5.85
2022-10-22T17:21:17.271Z,5.40
2022-10-22T17:23:46.795Z,6.28
2022-10-22T17:26:23.669Z,7.28
2022-10-22T17:28:50.819Z,7.03
2022-10-22T17:31:23.189Z,6.75
2022-10-22T17:33:51.574Z,6.80
2022-10-22T17:36:19.836Z,7.10
2022-10-22T17:38:50.109Z,7.78
2022-10-22T17:41:23.300Z,8.38
2022-10-22T17:43:50.387Z,9.10
2022-10-22T17:46:23.233Z,8.75
2022-10-22T17:49:12.544Z,7.90
2022-10-22T17:51:39.209Z,8.18
2022-10-22T17:54:08.811Z,9.02
2022-10-22T17:56:37.496Z,8.95
2022-10-22T17:59:04.441Z,9.52
2022-10-22T18:01:33.870Z,9.13
2022-10-22T18:04:04.278Z,8.82
2022-10-22T18:06:31.812Z,7.55
2022-10-22T18:08:58.554Z,8.20
2022-10-22T18:11:27.871Z,8.70
2022-10-22T18:13:58.063Z,8.85
2022-10-22T18:16:25.851Z,10.25
2022-10-22T18:18:54.603Z,8.93
2022-10-22T18:21:23.406Z,9.00
2022-10-22T18:23:50.529Z,8.75
2022-10-22T18:26:20.246Z,8.73
2022-10-22T18:28:49.533Z,9.43
2022-10-22T18:31:22.420Z,8.75
2022-10-22T18:33:49.404Z,8.73
2022-10-22T18:36:19.273Z,8.77
2022-10-22T18:39:04.801Z,9.23
2022-10-22T18:41:33.358Z,8.15
2022-10-22T18:44:02.730Z,8.07
2022-10-22T18:46:30.581Z,9.18
2022-10-22T18:48:58.719Z,8.63
2022-10-22T18:51:30.132Z,8.63
2022-10-22T18:54:05.901Z,8.80
2022-10-22T18:56:43.590Z,7.88
2022-10-22T18:59:27.469Z,8.88
2022-10-22T19:01:55.746Z,9.02
2022-10-22T19:04:22.374Z,8.20
2022-10-22T19:06:49.021Z,9.60
2022-10-22T19:09:16.029Z,7.55
2022-10-22T19:11:44.764Z,7.75
2022-10-22T19:14:13.265Z,8.48
2022-10-22T19:16:39.945Z,7.55
2022-10-22T19:19:08.043Z,7.53
2022-10-22T19:21:35.203Z,7.90
2022-10-22T19:24:02.511Z,7.90
2022-10-22T19:26:31.010Z,7.97
2022-10-22T19:28:59.485Z,7.15
2022-10-22T19:31:27.107Z,7.10
2022-10-22T19:33:56.571Z,7.13
2022-10-22T19:36:25.362Z,7.25
2022-10-22T19:38:52.097Z,7.72
2022-10-22T19:41:20.884Z,8.07
2022-10-22T19:43:53.050Z,7.72
2022-10-22T19:46:21.537Z,7.47
2022-10-22T19:48:49.847Z,7.68
2022-10-22T19:51:19.582Z,7.20
2022-10-22T19:53:46.513Z,6.82
2022-10-22T19:56:18.220Z,8.35
2022-10-22T19:58:45.180Z,7.57
2022-10-22T20:01:14.182Z,8.15
2022-10-22T20:03:41.601Z,8.57
2022-10-22T20:06:09.745Z,8.02
2022-10-22T20:08:40.563Z,8.00
2022-10-22T20:11:13.189Z,7.05
2022-10-22T20:16:11.996Z,8.65
2022-10-22T20:18:39.109Z,8.18
2022-10-22T20:21:14.177Z,8.60
2022-10-22T20:23:41.114Z,9.23
2022-10-22T20:26:07.831Z,10.13
2022-10-22T20:28:34.601Z,9.95
2022-10-22T20:31:01.206Z,9.13
2022-10-22T20:33:27.847Z,9.95
2022-10-22T20:36:01.376Z,8.70
2022-10-22T20:38:28.797Z,9.70
2022-10-22T20:41:20.284Z,8.38
2022-10-22T20:43:48.474Z,8.63
2022-10-22T20:46:19.855Z,8.32
2022-10-22T20:48:46.779Z,8.68
2022-10-22T20:51:14.165Z,8.32
2022-10-22T20:53:42.081Z,9.23
2022-10-22T20:56:10.129Z,9.48
2022-10-22T20:58:38.020Z,8.80
2022-10-22T21:01:10.463Z,8.88
2022-10-22T21:03:37.876Z,9.23
2022-10-22T21:06:06.000Z,8.77
2022-10-22T21:08:32.922Z,8.70
2022-10-22T21:10:59.537Z,8.38
2022-10-22T21:13:26.133Z,9.23
2022-10-22T21:15:52.784Z,8.90
2022-10-22T21:18:19.390Z,8.20
2022-10-22T21:20:46.011Z,8.55
2022-10-22T21:23:12.610Z,8.52
2022-10-22T21:25:41.976Z,7.82
2022-10-22T21:28:11.077Z,7.63
2022-10-22T21:30:44.979Z,7.65
2022-10-22T21:33:11.697Z,6.97
2022-10-22T21:35:38.283Z,6.43
2022-10-22T21:38:07.774Z,7.45
2022-10-22T21:40:37.247Z,6.88
2022-10-22T21:43:03.852Z,7.30
2022-10-22T21:45:30.436Z,6.50
2022-10-22T21:47:57.376Z,6.65
2022-10-22T21:50:24.044Z,6.28
2022-10-22T21:52:50.621Z,6.03
2022-10-22T21:55:17.390Z,5.47
2022-10-22T21:57:44.418Z,6.00
2022-10-22T22:00:12.698Z,5.63
2022-10-22T22:02:39.655Z,5.70
2022-10-22T22:05:06.512Z,5.82
2022-10-22T22:07:33.126Z,5.60
2022-10-22T22:09:59.764Z,5.07
2022-10-22T22:12:26.377Z,5.63
2022-10-22T22:14:53.098Z,5.38
2022-10-22T22:17:19.777Z,5.60
2022-10-22T22:19:46.356Z,5.97
2022-10-22T22:22:13.028Z,6.03
2022-10-22T22:24:42.550Z,5.90
2022-10-22T22:27:09.177Z,5.68
2022-10-22T22:29:36.002Z,6.35
2022-10-22T22:32:02.697Z,6.10
2022-10-22T22:34:29.336Z,5.90
2022-10-22T22:36:56.052Z,5.75
2022-10-22T22:39:23.571Z,5.72
2022-10-22T22:41:50.517Z,6.00
2022-10-22T22:44:17.538Z,5.75
2022-10-22T22:46:44.379Z,6.30
2022-10-22T22:49:12.947Z,5.97
2022-10-22T22:51:39.649Z,6.45
2022-10-22T22:54:06.268Z,6.15
2022-10-22T22:56:34.633Z,6.32
2022-10-22T22:59:02.205Z,6.85
2022-10-22T23:01:34.033Z,7.65
2022-10-22T23:04:11.253Z,7.20
2022-10-22T23:06:38.396Z,7.25
2022-10-22T23:09:07.340Z,7.60
2022-10-22T23:11:34.254Z,7.55
2022-10-22T23:14:03.524Z,7.57
2022-10-22T23:16:32.661Z,7.32
2022-10-22T23:19:00.250Z,7.57
2022-10-22T23:21:30.092Z,6.78
2022-10-22T23:24:02.002Z,8.10
2022-10-22T23:26:32.454Z,7.65
2022-10-22T23:29:11.226Z,7.28
2022-10-22T23:31:37.937Z,8.07
2022-10-22T23:34:06.351Z,8.48
2022-10-22T23:36:35.957Z,7.45
2022-10-22T23:39:11.965Z,7.93
2022-10-22T23:41:38.973Z,7.78
2022-10-22T23:44:06.822Z,8.43
2022-10-22T23:46:33.876Z,7.78
2022-10-22T23:49:01.296Z,9.15
2022-10-22T23:51:28.483Z,9.48
2022-10-22T23:53:57.697Z,9.85
2022-10-22T23:56:25.568Z,9.77
2022-10-22T23:58:53.014Z,9.70
